sensor_id;sensor_type;location;lat;lon;timestamp;P1;durP1;ratioP1;P2;durP2;ratioP2
8066;SDS011;4076;48.076;9.118;2024-03-06T00:00:17;2.80;;;2.57;;
8066;SDS011;4076;48.076;9.118;2024-03-06T00:02:47;2.50;;;1.87;;
8066;SDS011;4076;48.076;9.118;2024-03-06T00:05:16;2.20;;;1.70;;
8066;SDS011;4076;48.076;9.118;2024-03-06T00:07:45;2.00;;;1.80;;
8066;SDS011;4076;48.076;9.118;2024-03-06T00:10:15;2.20;;;2.10;;
8066;SDS011;4076;48.076;9.118;2024-03-06T00:12:44;1.90;;;1.80;;
8066;SDS011;4076;48.076;9.118;2024-03-06T00:15:13;1.70;;;1.60;;
8066;SDS011;4076;48.076;9.118;2024-03-06T00:17:42;2.57;;;1.70;;
8066;SDS011;4076;48.076;9.118;2024-03-06T00:20:12;2.30;;;1.90;;
8066;SDS011;4076;48.076;9.118;2024-03-06T00:22:41;1.60;;;1.50;;
8066;SDS011;4076;48.076;9.118;2024-03-06T00:25:10;2.27;;;2.07;;
8066;SDS011;4076;48.076;9.118;2024-03-06T00:27:40;1.70;;;1.60;;
8066;SDS011;4076;48.076;9.118;2024-03-06T00:30:09;2.10;;;1.80;;
8066;SDS011;4076;48.076;9.118;2024-03-06T00:32:40;2.47;;;1.70;;
8066;SDS011;4076;48.076;9.118;2024-03-06T00:35:10;2.27;;;1.70;;
8066;SDS011;4076;48.076;9.118;2024-03-06T00:37:39;1.60;;;1.50;;
8066;SDS011;4076;48.076;9.118;2024-03-06T00:40:08;2.90;;;1.80;;
8066;SDS011;4076;48.076;9.118;2024-03-06T00:42:39;1.50;;;1.40;;
8066;SDS011;4076;48.076;9.118;2024-03-06T00:45:11;2.00;;;1.77;;
8066;SDS011;4076;48.076;9.118;2024-03-06T00:47:42;2.40;;;2.20;;
8066;SDS011;4076;48.076;9.118;2024-03-06T00:50:13;1.90;;;1.80;;
8066;SDS011;4076;48.076;9.118;2024-03-06T00:52:47;2.17;;;1.97;;
8066;SDS011;4076;48.076;9.118;2024-03-06T00:55:20;1.80;;;1.70;;
8066;SDS011;4076;48.076;9.118;2024-03-06T00:57:59;1.77;;;1.67;;
8066;SDS011;4076;48.076;9.118;2024-03-06T01:00:40;2.00;;;1.90;;
8066;SDS011;4076;48.076;9.118;2024-03-06T01:03:29;2.73;;;2.03;;
8066;SDS011;4076;48.076;9.118;2024-03-06T01:05:58;2.23;;;2.03;;
8066;SDS011;4076;48.076;9.118;2024-03-06T01:08:29;2.00;;;1.90;;
8066;SDS011;4076;48.076;9.118;2024-03-06T01:10:59;2.13;;;1.80;;
8066;SDS011;4076;48.076;9.118;2024-03-06T01:13:30;2.10;;;2.00;;
8066;SDS011;4076;48.076;9.118;2024-03-06T01:16:01;2.40;;;2.30;;
8066;SDS011;4076;48.076;9.118;2024-03-06T01:18:32;2.23;;;2.00;;
8066;SDS011;4076;48.076;9.118;2024-03-06T01:21:04;2.60;;;2.40;;
8066;SDS011;4076;48.076;9.118;2024-03-06T01:23:35;2.57;;;2.30;;
8066;SDS011;4076;48.076;9.118;2024-03-06T01:26:07;3.00;;;2.43;;
8066;SDS011;4076;48.076;9.118;2024-03-06T01:28:41;2.53;;;2.33;;
8066;SDS011;4076;48.076;9.118;2024-03-06T01:31:13;2.10;;;2.00;;
8066;SDS011;4076;48.076;9.118;2024-03-06T01:33:50;2.20;;;1.83;;
8066;SDS011;4076;48.076;9.118;2024-03-06T01:36:28;2.40;;;2.20;;
8066;SDS011;4076;48.076;9.118;2024-03-06T01:39:07;3.83;;;2.07;;
8066;SDS011;4076;48.076;9.118;2024-03-06T01:42:04;1.67;;;1.57;;
8066;SDS011;4076;48.076;9.118;2024-03-06T01:44:47;2.37;;;2.20;;
8066;SDS011;4076;48.076;9.118;2024-03-06T01:47:25;1.87;;;1.77;;
8066;SDS011;4076;48.076;9.118;2024-03-06T01:50:05;2.03;;;1.93;;
8066;SDS011;4076;48.076;9.118;2024-03-06T01:52:45;1.90;;;1.70;;
8066;SDS011;4076;48.076;9.118;2024-03-06T01:55:27;2.27;;;2.07;;
8066;SDS011;4076;48.076;9.118;2024-03-06T01:58:07;2.00;;;1.90;;
8066;SDS011;4076;48.076;9.118;2024-03-06T02:00:39;3.30;;;1.57;;
8066;SDS011;4076;48.076;9.118;2024-03-06T02:03:11;2.30;;;2.10;;
8066;SDS011;4076;48.076;9.118;2024-03-06T02:05:42;1.70;;;1.60;;
8066;SDS011;4076;48.076;9.118;2024-03-06T02:08:18;1.90;;;1.80;;
8066;SDS011;4076;48.076;9.118;2024-03-06T02:10:51;1.93;;;1.63;;
8066;SDS011;4076;48.076;9.118;2024-03-06T02:13:28;1.97;;;1.60;;
8066;SDS011;4076;48.076;9.118;2024-03-06T02:16:04;1.53;;;1.43;;
8066;SDS011;4076;48.076;9.118;2024-03-06T02:18:51;3.37;;;2.10;;
8066;SDS011;4076;48.076;9.118;2024-03-06T02:21:23;2.50;;;2.30;;
8066;SDS011;4076;48.076;9.118;2024-03-06T02:23:56;2.23;;;2.07;;
8066;SDS011;4076;48.076;9.118;2024-03-06T02:26:27;2.43;;;2.23;;
8066;SDS011;4076;48.076;9.118;2024-03-06T02:28:59;1.70;;;1.60;;
8066;SDS011;4076;48.076;9.118;2024-03-06T02:31:31;1.40;;;1.30;;
8066;SDS011;4076;48.076;9.118;2024-03-06T02:34:04;2.00;;;1.60;;
8066;SDS011;4076;48.076;9.118;2024-03-06T02:36:44;1.90;;;1.80;;
8066;SDS011;4076;48.076;9.118;2024-03-06T02:39:16;3.87;;;3.57;;
8066;SDS011;4076;48.076;9.118;2024-03-06T02:41:51;1.60;;;1.50;;
8066;SDS011;4076;48.076;9.118;2024-03-06T02:44:24;1.70;;;1.50;;
8066;SDS011;4076;48.076;9.118;2024-03-06T02:47:00;1.80;;;1.70;;
8066;SDS011;4076;48.076;9.118;2024-03-06T02:49:37;1.97;;;1.87;;
8066;SDS011;4076;48.076;9.118;2024-03-06T02:52:12;3.50;;;3.20;;
8066;SDS011;4076;48.076;9.118;2024-03-06T02:54:50;3.47;;;3.27;;
8066;SDS011;4076;48.076;9.118;2024-03-06T02:57:21;3.30;;;3.10;;
8066;SDS011;4076;48.076;9.118;2024-03-06T02:59:56;3.97;;;3.57;;
8066;SDS011;4076;48.076;9.118;2024-03-06T03:02:28;2.73;;;2.53;;
8066;SDS011;4076;48.076;9.118;2024-03-06T03:05:14;1.70;;;1.60;;
8066;SDS011;4076;48.076;9.118;2024-03-06T03:07:42;2.03;;;1.60;;
8066;SDS011;4076;48.076;9.118;2024-03-06T03:10:19;1.87;;;1.77;;
8066;SDS011;4076;48.076;9.118;2024-03-06T03:12:59;2.20;;;2.03;;
8066;SDS011;4076;48.076;9.118;2024-03-06T03:15:41;4.73;;;2.80;;
8066;SDS011;4076;48.076;9.118;2024-03-06T03:18:14;2.20;;;2.07;;
8066;SDS011;4076;48.076;9.118;2024-03-06T03:20:54;2.30;;;1.60;;
8066;SDS011;4076;48.076;9.118;2024-03-06T03:23:26;1.80;;;1.70;;
8066;SDS011;4076;48.076;9.118;2024-03-06T03:25:58;2.30;;;2.20;;
8066;SDS011;4076;48.076;9.118;2024-03-06T03:28:41;2.03;;;1.57;;
8066;SDS011;4076;48.076;9.118;2024-03-06T03:31:10;2.13;;;2.03;;
8066;SDS011;4076;48.076;9.118;2024-03-06T03:33:41;1.90;;;1.80;;
8066;SDS011;4076;48.076;9.118;2024-03-06T03:36:17;3.83;;;3.40;;
8066;SDS011;4076;48.076;9.118;2024-03-06T03:38:48;2.37;;;2.17;;
8066;SDS011;4076;48.076;9.118;2024-03-06T03:41:19;2.30;;;2.17;;
8066;SDS011;4076;48.076;9.118;2024-03-06T03:43:55;2.10;;;1.70;;
8066;SDS011;4076;48.076;9.118;2024-03-06T03:46:32;2.03;;;1.70;;
8066;SDS011;4076;48.076;9.118;2024-03-06T03:49:03;5.43;;;2.00;;
8066;SDS011;4076;48.076;9.118;2024-03-06T03:51:41;2.27;;;1.80;;
8066;SDS011;4076;48.076;9.118;2024-03-06T03:54:20;1.67;;;1.57;;
8066;SDS011;4076;48.076;9.118;2024-03-06T03:56:58;2.07;;;1.73;;
8066;SDS011;4076;48.076;9.118;2024-03-06T03:59:35;1.97;;;1.77;;
8066;SDS011;4076;48.076;9.118;2024-03-06T04:02:16;1.43;;;1.33;;
8066;SDS011;4076;48.076;9.118;2024-03-06T04:04:51;2.07;;;1.87;;
8066;SDS011;4076;48.076;9.118;2024-03-06T04:07:37;5.70;;;4.40;;
8066;SDS011;4076;48.076;9.118;2024-03-06T04:10:25;3.27;;;1.80;;
8066;SDS011;4076;48.076;9.118;2024-03-06T04:13:05;2.10;;;2.00;;
8066;SDS011;4076;48.076;9.118;2024-03-06T04:16:00;2.37;;;2.17;;
8066;SDS011;4076;48.076;9.118;2024-03-06T04:18:34;1.70;;;1.57;;
8066;SDS011;4076;48.076;9.118;2024-03-06T04:21:07;2.23;;;2.13;;
8066;SDS011;4076;48.076;9.118;2024-03-06T04:23:36;4.03;;;3.57;;
8066;SDS011;4076;48.076;9.118;2024-03-06T04:26:05;2.30;;;2.10;;
8066;SDS011;4076;48.076;9.118;2024-03-06T04:28:45;1.60;;;1.50;;
8066;SDS011;4076;48.076;9.118;2024-03-06T04:31:22;1.80;;;1.70;;
8066;SDS011;4076;48.076;9.118;2024-03-06T04:34:02;1.70;;;1.60;;
8066;SDS011;4076;48.076;9.118;2024-03-06T04:36:54;1.70;;;1.50;;
8066;SDS011;4076;48.076;9.118;2024-03-06T04:39:34;1.93;;;1.60;;
8066;SDS011;4076;48.076;9.118;2024-03-06T04:42:07;1.93;;;1.73;;
8066;SDS011;4076;48.076;9.118;2024-03-06T04:44:51;2.30;;;2.10;;
8066;SDS011;4076;48.076;9.118;2024-03-06T04:47:34;2.80;;;2.10;;
8066;SDS011;4076;48.076;9.118;2024-03-06T04:50:00;2.10;;;1.90;;
8066;SDS011;4076;48.076;9.118;2024-03-06T04:52:34;2.23;;;2.10;;
8066;SDS011;4076;48.076;9.118;2024-03-06T04:55:06;2.33;;;1.70;;
8066;SDS011;4076;48.076;9.118;2024-03-06T04:57:42;2.70;;;2.50;;
8066;SDS011;4076;48.076;9.118;2024-03-06T05:00:15;2.00;;;1.90;;
8066;SDS011;4076;48.076;9.118;2024-03-06T05:02:45;3.00;;;1.80;;
8066;SDS011;4076;48.076;9.118;2024-03-06T05:05:14;1.70;;;1.60;;
8066;SDS011;4076;48.076;9.118;2024-03-06T05:07:43;2.37;;;1.90;;
8066;SDS011;4076;48.076;9.118;2024-03-06T05:10:15;2.27;;;1.87;;
8066;SDS011;4076;48.076;9.118;2024-03-06T05:12:46;1.83;;;1.73;;
8066;SDS011;4076;48.076;9.118;2024-03-06T05:15:19;2.93;;;2.73;;
8066;SDS011;4076;48.076;9.118;2024-03-06T05:17:55;3.53;;;3.30;;
8066;SDS011;4076;48.076;9.118;2024-03-06T05:20:26;2.83;;;2.63;;
8066;SDS011;4076;48.076;9.118;2024-03-06T05:22:59;4.20;;;3.87;;
8066;SDS011;4076;48.076;9.118;2024-03-06T05:25:31;4.93;;;4.40;;
8066;SDS011;4076;48.076;9.118;2024-03-06T05:28:02;6.70;;;6.20;;
8066;SDS011;4076;48.076;9.118;2024-03-06T05:30:35;4.83;;;2.90;;
8066;SDS011;4076;48.076;9.118;2024-03-06T05:33:10;3.63;;;2.50;;
8066;SDS011;4076;48.076;9.118;2024-03-06T05:35:42;3.00;;;2.80;;
8066;SDS011;4076;48.076;9.118;2024-03-06T05:38:17;3.27;;;2.97;;
8066;SDS011;4076;48.076;9.118;2024-03-06T05:40:48;4.47;;;4.07;;
8066;SDS011;4076;48.076;9.118;2024-03-06T05:43:19;5.27;;;4.90;;
8066;SDS011;4076;48.076;9.118;2024-03-06T05:45:53;3.23;;;2.93;;
8066;SDS011;4076;48.076;9.118;2024-03-06T05:48:32;3.20;;;3.00;;
8066;SDS011;4076;48.076;9.118;2024-03-06T05:51:00;3.00;;;2.77;;
8066;SDS011;4076;48.076;9.118;2024-03-06T05:53:48;2.77;;;2.67;;
8066;SDS011;4076;48.076;9.118;2024-03-06T05:56:18;2.03;;;1.90;;
8066;SDS011;4076;48.076;9.118;2024-03-06T05:58:45;2.77;;;1.97;;
8066;SDS011;4076;48.076;9.118;2024-03-06T06:01:14;1.97;;;1.87;;
8066;SDS011;4076;48.076;9.118;2024-03-06T06:03:47;2.13;;;1.93;;
8066;SDS011;4076;48.076;9.118;2024-03-06T06:06:14;2.20;;;2.10;;
8066;SDS011;4076;48.076;9.118;2024-03-06T06:08:42;2.20;;;2.00;;
8066;SDS011;4076;48.076;9.118;2024-03-06T06:11:09;2.97;;;2.77;;
8066;SDS011;4076;48.076;9.118;2024-03-06T06:13:37;2.47;;;2.27;;
8066;SDS011;4076;48.076;9.118;2024-03-06T06:16:06;2.43;;;2.23;;
8066;SDS011;4076;48.076;9.118;2024-03-06T06:18:34;2.27;;;2.07;;
8066;SDS011;4076;48.076;9.118;2024-03-06T06:21:03;2.40;;;2.20;;
8066;SDS011;4076;48.076;9.118;2024-03-06T06:23:33;2.30;;;2.10;;
8066;SDS011;4076;48.076;9.118;2024-03-06T06:26:02;2.00;;;1.90;;
8066;SDS011;4076;48.076;9.118;2024-03-06T06:28:31;1.83;;;1.60;;
8066;SDS011;4076;48.076;9.118;2024-03-06T06:31:00;2.93;;;2.30;;
8066;SDS011;4076;48.076;9.118;2024-03-06T06:33:29;2.40;;;2.23;;
8066;SDS011;4076;48.076;9.118;2024-03-06T06:35:58;2.47;;;2.37;;
8066;SDS011;4076;48.076;9.118;2024-03-06T06:38:27;2.60;;;2.40;;
8066;SDS011;4076;48.076;9.118;2024-03-06T06:40:56;3.13;;;2.27;;
8066;SDS011;4076;48.076;9.118;2024-03-06T06:43:26;2.33;;;2.13;;
8066;SDS011;4076;48.076;9.118;2024-03-06T06:45:55;3.57;;;2.93;;
8066;SDS011;4076;48.076;9.118;2024-03-06T06:48:24;3.07;;;2.87;;
8066;SDS011;4076;48.076;9.118;2024-03-06T06:50:53;5.33;;;3.80;;
8066;SDS011;4076;48.076;9.118;2024-03-06T06:53:22;4.90;;;4.30;;
8066;SDS011;4076;48.076;9.118;2024-03-06T06:55:52;4.13;;;3.60;;
8066;SDS011;4076;48.076;9.118;2024-03-06T06:58:21;4.37;;;3.97;;
8066;SDS011;4076;48.076;9.118;2024-03-06T07:00:52;4.67;;;2.83;;
8066;SDS011;4076;48.076;9.118;2024-03-06T07:03:21;4.17;;;3.80;;
8066;SDS011;4076;48.076;9.118;2024-03-06T07:05:54;2.83;;;2.67;;
8066;SDS011;4076;48.076;9.118;2024-03-06T07:08:25;2.90;;;2.50;;
8066;SDS011;4076;48.076;9.118;2024-03-06T07:10:56;4.03;;;3.10;;
8066;SDS011;4076;48.076;9.118;2024-03-06T07:13:25;5.37;;;3.00;;
8066;SDS011;4076;48.076;9.118;2024-03-06T07:15:56;3.53;;;3.30;;
8066;SDS011;4076;48.076;9.118;2024-03-06T07:18:26;4.90;;;3.10;;
8066;SDS011;4076;48.076;9.118;2024-03-06T07:20:55;5.40;;;4.37;;
8066;SDS011;4076;48.076;9.118;2024-03-06T07:23:24;4.20;;;3.80;;
8066;SDS011;4076;48.076;9.118;2024-03-06T07:25:55;5.10;;;4.80;;
8066;SDS011;4076;48.076;9.118;2024-03-06T07:28:29;4.63;;;4.33;;
8066;SDS011;4076;48.076;9.118;2024-03-06T07:30:58;3.53;;;3.33;;
8066;SDS011;4076;48.076;9.118;2024-03-06T07:33:27;4.23;;;3.83;;
8066;SDS011;4076;48.076;9.118;2024-03-06T07:35:59;4.07;;;3.70;;
8066;SDS011;4076;48.076;9.118;2024-03-06T07:38:28;4.30;;;3.80;;
8066;SDS011;4076;48.076;9.118;2024-03-06T07:40:57;5.43;;;4.90;;
8066;SDS011;4076;48.076;9.118;2024-03-06T07:43:27;4.97;;;4.57;;
8066;SDS011;4076;48.076;9.118;2024-03-06T07:45:56;5.23;;;4.37;;
8066;SDS011;4076;48.076;9.118;2024-03-06T07:48:27;3.47;;;3.17;;
8066;SDS011;4076;48.076;9.118;2024-03-06T07:50:58;3.20;;;2.90;;
8066;SDS011;4076;48.076;9.118;2024-03-06T07:53:29;3.27;;;3.03;;
8066;SDS011;4076;48.076;9.118;2024-03-06T07:55:58;3.93;;;3.63;;
8066;SDS011;4076;48.076;9.118;2024-03-06T07:58:28;2.70;;;2.50;;
8066;SDS011;4076;48.076;9.118;2024-03-06T08:00:59;3.50;;;3.20;;
8066;SDS011;4076;48.076;9.118;2024-03-06T08:03:30;4.10;;;3.80;;
8066;SDS011;4076;48.076;9.118;2024-03-06T08:06:04;3.97;;;3.60;;
8066;SDS011;4076;48.076;9.118;2024-03-06T08:08:34;3.50;;;3.20;;
8066;SDS011;4076;48.076;9.118;2024-03-06T08:11:03;3.20;;;2.97;;
8066;SDS011;4076;48.076;9.118;2024-03-06T08:13:36;3.17;;;2.83;;
8066;SDS011;4076;48.076;9.118;2024-03-06T08:16:07;3.63;;;3.33;;
8066;SDS011;4076;48.076;9.118;2024-03-06T08:18:38;3.33;;;3.03;;
8066;SDS011;4076;48.076;9.118;2024-03-06T08:21:12;3.40;;;3.20;;
8066;SDS011;4076;48.076;9.118;2024-03-06T08:23:44;4.47;;;4.17;;
8066;SDS011;4076;48.076;9.118;2024-03-06T08:26:15;2.67;;;2.47;;
8066;SDS011;4076;48.076;9.118;2024-03-06T08:28:45;2.73;;;2.53;;
8066;SDS011;4076;48.076;9.118;2024-03-06T08:31:16;3.20;;;3.00;;
8066;SDS011;4076;48.076;9.118;2024-03-06T08:33:48;2.67;;;2.53;;
8066;SDS011;4076;48.076;9.118;2024-03-06T08:36:19;2.90;;;2.70;;
8066;SDS011;4076;48.076;9.118;2024-03-06T08:38:49;5.80;;;2.90;;
8066;SDS011;4076;48.076;9.118;2024-03-06T08:41:18;3.27;;;3.07;;
8066;SDS011;4076;48.076;9.118;2024-03-06T08:43:47;2.23;;;2.13;;
8066;SDS011;4076;48.076;9.118;2024-03-06T08:46:19;2.63;;;2.43;;
8066;SDS011;4076;48.076;9.118;2024-03-06T08:48:50;4.47;;;3.77;;
8066;SDS011;4076;48.076;9.118;2024-03-06T08:51:21;5.23;;;4.63;;
8066;SDS011;4076;48.076;9.118;2024-03-06T08:53:55;4.53;;;3.47;;
8066;SDS011;4076;48.076;9.118;2024-03-06T08:56:27;3.93;;;3.60;;
8066;SDS011;4076;48.076;9.118;2024-03-06T08:59:03;3.30;;;3.10;;
8066;SDS011;4076;48.076;9.118;2024-03-06T09:01:38;2.63;;;2.53;;
8066;SDS011;4076;48.076;9.118;2024-03-06T09:04:10;2.93;;;2.73;;
8066;SDS011;4076;48.076;9.118;2024-03-06T09:06:41;3.47;;;3.23;;
8066;SDS011;4076;48.076;9.118;2024-03-06T09:09:16;2.60;;;2.40;;
8066;SDS011;4076;48.076;9.118;2024-03-06T09:11:47;2.83;;;2.63;;
8066;SDS011;4076;48.076;9.118;2024-03-06T09:14:41;3.90;;;3.53;;
8066;SDS011;4076;48.076;9.118;2024-03-06T09:17:10;2.27;;;2.00;;
8066;SDS011;4076;48.076;9.118;2024-03-06T09:19:44;4.47;;;3.23;;
8066;SDS011;4076;48.076;9.118;2024-03-06T09:22:12;2.70;;;2.50;;
8066;SDS011;4076;48.076;9.118;2024-03-06T09:24:42;2.47;;;2.20;;
8066;SDS011;4076;48.076;9.118;2024-03-06T09:27:17;3.20;;;2.47;;
8066;SDS011;4076;48.076;9.118;2024-03-06T09:29:53;2.40;;;2.30;;
8066;SDS011;4076;48.076;9.118;2024-03-06T09:32:34;2.47;;;2.27;;
8066;SDS011;4076;48.076;9.118;2024-03-06T09:35:10;4.57;;;2.63;;
8066;SDS011;4076;48.076;9.118;2024-03-06T09:37:47;2.80;;;2.20;;
8066;SDS011;4076;48.076;9.118;2024-03-06T09:40:25;3.43;;;1.80;;
8066;SDS011;4076;48.076;9.118;2024-03-06T09:42:57;2.10;;;2.00;;
8066;SDS011;4076;48.076;9.118;2024-03-06T09:45:28;1.70;;;1.60;;
8066;SDS011;4076;48.076;9.118;2024-03-06T09:48:00;1.93;;;1.83;;
8066;SDS011;4076;48.076;9.118;2024-03-06T09:50:32;1.90;;;1.70;;
8066;SDS011;4076;48.076;9.118;2024-03-06T09:53:08;2.30;;;2.17;;
8066;SDS011;4076;48.076;9.118;2024-03-06T09:55:37;1.30;;;1.20;;
8066;SDS011;4076;48.076;9.118;2024-03-06T09:58:09;1.50;;;1.40;;
8066;SDS011;4076;48.076;9.118;2024-03-06T10:00:40;1.97;;;1.83;;
8066;SDS011;4076;48.076;9.118;2024-03-06T10:03:16;1.20;;;1.10;;
8066;SDS011;4076;48.076;9.118;2024-03-06T10:05:45;2.93;;;1.40;;
8066;SDS011;4076;48.076;9.118;2024-03-06T10:08:14;1.40;;;1.30;;
8066;SDS011;4076;48.076;9.118;2024-03-06T10:10:44;2.07;;;1.97;;
8066;SDS011;4076;48.076;9.118;2024-03-06T10:13:18;2.43;;;1.70;;
8066;SDS011;4076;48.076;9.118;2024-03-06T10:15:56;2.67;;;1.60;;
8066;SDS011;4076;48.076;9.118;2024-03-06T10:18:26;1.40;;;1.30;;
8066;SDS011;4076;48.076;9.118;2024-03-06T10:20:56;1.70;;;1.60;;
8066;SDS011;4076;48.076;9.118;2024-03-06T10:23:29;1.27;;;1.17;;
8066;SDS011;4076;48.076;9.118;2024-03-06T10:26:00;1.90;;;1.77;;
8066;SDS011;4076;48.076;9.118;2024-03-06T10:28:30;1.20;;;1.10;;
8066;SDS011;4076;48.076;9.118;2024-03-06T10:31:03;1.50;;;1.20;;
8066;SDS011;4076;48.076;9.118;2024-03-06T10:33:33;2.23;;;2.13;;
8066;SDS011;4076;48.076;9.118;2024-03-06T10:36:03;2.40;;;1.77;;
8066;SDS011;4076;48.076;9.118;2024-03-06T10:38:35;2.10;;;2.00;;
8066;SDS011;4076;48.076;9.118;2024-03-06T10:41:07;1.90;;;1.57;;
8066;SDS011;4076;48.076;9.118;2024-03-06T10:43:38;2.20;;;1.60;;
8066;SDS011;4076;48.076;9.118;2024-03-06T10:46:08;1.60;;;1.50;;
8066;SDS011;4076;48.076;9.118;2024-03-06T10:48:39;2.23;;;2.03;;
8066;SDS011;4076;48.076;9.118;2024-03-06T10:51:09;1.70;;;1.60;;
8066;SDS011;4076;48.076;9.118;2024-03-06T10:53:39;1.30;;;1.20;;
8066;SDS011;4076;48.076;9.118;2024-03-06T10:56:09;1.40;;;1.30;;
8066;SDS011;4076;48.076;9.118;2024-03-06T10:58:39;1.20;;;1.10;;
8066;SDS011;4076;48.076;9.118;2024-03-06T11:01:11;1.30;;;1.20;;
8066;SDS011;4076;48.076;9.118;2024-03-06T11:03:42;1.20;;;1.10;;
8066;SDS011;4076;48.076;9.118;2024-03-06T11:06:13;1.77;;;1.67;;
8066;SDS011;4076;48.076;9.118;2024-03-06T11:08:45;1.63;;;1.53;;
8066;SDS011;4076;48.076;9.118;2024-03-06T11:11:19;1.40;;;1.30;;
8066;SDS011;4076;48.076;9.118;2024-03-06T11:14:00;3.10;;;1.03;;
8066;SDS011;4076;48.076;9.118;2024-03-06T11:16:31;1.20;;;1.00;;
8066;SDS011;4076;48.076;9.118;2024-03-06T11:19:07;1.00;;;0.90;;
8066;SDS011;4076;48.076;9.118;2024-03-06T11:21:45;1.43;;;1.27;;
8066;SDS011;4076;48.076;9.118;2024-03-06T11:24:15;1.40;;;1.30;;
8066;SDS011;4076;48.076;9.118;2024-03-06T11:26:48;1.67;;;1.57;;
8066;SDS011;4076;48.076;9.118;2024-03-06T11:29:19;1.50;;;1.40;;
8066;SDS011;4076;48.076;9.118;2024-03-06T11:31:56;1.10;;;0.90;;
8066;SDS011;4076;48.076;9.118;2024-03-06T11:34:27;1.23;;;1.00;;
8066;SDS011;4076;48.076;9.118;2024-03-06T11:36:57;1.77;;;1.23;;
8066;SDS011;4076;48.076;9.118;2024-03-06T11:39:29;1.13;;;1.03;;
8066;SDS011;4076;48.076;9.118;2024-03-06T11:42:01;1.87;;;1.77;;
8066;SDS011;4076;48.076;9.118;2024-03-06T11:44:34;1.73;;;1.63;;
8066;SDS011;4076;48.076;9.118;2024-03-06T11:47:04;1.27;;;1.17;;
8066;SDS011;4076;48.076;9.118;2024-03-06T11:49:34;1.50;;;1.40;;
8066;SDS011;4076;48.076;9.118;2024-03-06T11:52:04;1.17;;;1.07;;
8066;SDS011;4076;48.076;9.118;2024-03-06T11:54:33;1.20;;;1.10;;
8066;SDS011;4076;48.076;9.118;2024-03-06T11:57:03;1.13;;;1.03;;
8066;SDS011;4076;48.076;9.118;2024-03-06T11:59:33;1.10;;;1.00;;
8066;SDS011;4076;48.076;9.118;2024-03-06T12:02:04;1.70;;;1.60;;
8066;SDS011;4076;48.076;9.118;2024-03-06T12:04:35;1.40;;;1.20;;
8066;SDS011;4076;48.076;9.118;2024-03-06T12:07:04;1.10;;;1.00;;
8066;SDS011;4076;48.076;9.118;2024-03-06T12:09:34;1.47;;;1.37;;
8066;SDS011;4076;48.076;9.118;2024-03-06T12:12:06;1.67;;;1.57;;
8066;SDS011;4076;48.076;9.118;2024-03-06T12:14:35;1.40;;;1.10;;
8066;SDS011;4076;48.076;9.118;2024-03-06T12:17:04;1.20;;;1.10;;
8066;SDS011;4076;48.076;9.118;2024-03-06T12:19:34;1.10;;;1.00;;
8066;SDS011;4076;48.076;9.118;2024-03-06T12:22:04;0.90;;;0.90;;
8066;SDS011;4076;48.076;9.118;2024-03-06T12:24:33;1.30;;;1.20;;
8066;SDS011;4076;48.076;9.118;2024-03-06T12:27:03;7.63;;;1.40;;
8066;SDS011;4076;48.076;9.118;2024-03-06T12:29:33;1.10;;;1.00;;
8066;SDS011;4076;48.076;9.118;2024-03-06T12:32:03;1.57;;;1.13;;
8066;SDS011;4076;48.076;9.118;2024-03-06T12:34:32;1.50;;;1.40;;
8066;SDS011;4076;48.076;9.118;2024-03-06T12:37:11;1.17;;;1.07;;
8066;SDS011;4076;48.076;9.118;2024-03-06T12:39:38;1.50;;;1.17;;
8066;SDS011;4076;48.076;9.118;2024-03-06T12:42:07;1.43;;;1.33;;
8066;SDS011;4076;48.076;9.118;2024-03-06T12:44:36;1.50;;;1.40;;
8066;SDS011;4076;48.076;9.118;2024-03-06T12:47:06;1.50;;;1.40;;
8066;SDS011;4076;48.076;9.118;2024-03-06T12:49:34;1.70;;;1.60;;
8066;SDS011;4076;48.076;9.118;2024-03-06T12:52:03;1.80;;;1.70;;
8066;SDS011;4076;48.076;9.118;2024-03-06T12:54:33;2.10;;;1.47;;
8066;SDS011;4076;48.076;9.118;2024-03-06T12:57:03;2.60;;;1.43;;
8066;SDS011;4076;48.076;9.118;2024-03-06T12:59:33;1.50;;;1.40;;
8066;SDS011;4076;48.076;9.118;2024-03-06T13:02:02;1.73;;;1.63;;
8066;SDS011;4076;48.076;9.118;2024-03-06T13:04:32;1.63;;;1.53;;
8066;SDS011;4076;48.076;9.118;2024-03-06T13:07:01;2.10;;;1.53;;
8066;SDS011;4076;48.076;9.118;2024-03-06T13:09:30;1.60;;;1.50;;
8066;SDS011;4076;48.076;9.118;2024-03-06T13:11:59;1.97;;;1.83;;
8066;SDS011;4076;48.076;9.118;2024-03-06T13:14:28;1.23;;;1.10;;
8066;SDS011;4076;48.076;9.118;2024-03-06T13:16:57;1.23;;;1.13;;
8066;SDS011;4076;48.076;9.118;2024-03-06T13:19:27;1.30;;;1.20;;
8066;SDS011;4076;48.076;9.118;2024-03-06T13:21:57;1.40;;;1.27;;
8066;SDS011;4076;48.076;9.118;2024-03-06T13:24:24;1.73;;;1.63;;
8066;SDS011;4076;48.076;9.118;2024-03-06T13:26:51;1.57;;;1.40;;
8066;SDS011;4076;48.076;9.118;2024-03-06T13:29:20;1.50;;;1.40;;
8066;SDS011;4076;48.076;9.118;2024-03-06T13:31:49;1.40;;;1.10;;
8066;SDS011;4076;48.076;9.118;2024-03-06T13:34:18;1.30;;;1.20;;
8066;SDS011;4076;48.076;9.118;2024-03-06T13:36:47;1.40;;;1.30;;
8066;SDS011;4076;48.076;9.118;2024-03-06T13:39:16;1.40;;;1.27;;
8066;SDS011;4076;48.076;9.118;2024-03-06T13:41:44;2.50;;;1.33;;
8066;SDS011;4076;48.076;9.118;2024-03-06T13:44:13;1.90;;;1.50;;
8066;SDS011;4076;48.076;9.118;2024-03-06T13:46:43;2.17;;;2.07;;
8066;SDS011;4076;48.076;9.118;2024-03-06T13:49:22;1.53;;;1.30;;
8066;SDS011;4076;48.076;9.118;2024-03-06T13:51:58;1.50;;;1.40;;
8066;SDS011;4076;48.076;9.118;2024-03-06T13:54:25;3.00;;;1.40;;
8066;SDS011;4076;48.076;9.118;2024-03-06T13:56:52;3.30;;;1.77;;
8066;SDS011;4076;48.076;9.118;2024-03-06T13:59:26;4.80;;;3.43;;
8066;SDS011;4076;48.076;9.118;2024-03-06T14:01:53;4.13;;;2.10;;
8066;SDS011;4076;48.076;9.118;2024-03-06T14:04:20;3.43;;;2.90;;
8066;SDS011;4076;48.076;9.118;2024-03-06T14:06:47;2.53;;;2.33;;
8066;SDS011;4076;48.076;9.118;2024-03-06T14:09:14;5.00;;;3.80;;
8066;SDS011;4076;48.076;9.118;2024-03-06T14:11:41;5.47;;;3.73;;
8066;SDS011;4076;48.076;9.118;2024-03-06T14:14:08;5.90;;;4.97;;
8066;SDS011;4076;48.076;9.118;2024-03-06T14:16:39;4.67;;;2.77;;
8066;SDS011;4076;48.076;9.118;2024-03-06T14:19:07;2.70;;;2.40;;
8066;SDS011;4076;48.076;9.118;2024-03-06T14:21:35;6.47;;;5.20;;
8066;SDS011;4076;48.076;9.118;2024-03-06T14:24:03;3.00;;;2.10;;
8066;SDS011;4076;48.076;9.118;2024-03-06T14:26:34;2.67;;;2.23;;
8066;SDS011;4076;48.076;9.118;2024-03-06T14:29:02;1.50;;;1.40;;
8066;SDS011;4076;48.076;9.118;2024-03-06T14:31:31;3.73;;;3.43;;
8066;SDS011;4076;48.076;9.118;2024-03-06T14:33:58;1.73;;;1.57;;
8066;SDS011;4076;48.076;9.118;2024-03-06T14:36:25;2.90;;;2.40;;
8066;SDS011;4076;48.076;9.118;2024-03-06T14:38:52;3.13;;;2.83;;
8066;SDS011;4076;48.076;9.118;2024-03-06T14:41:19;2.33;;;2.20;;
8066;SDS011;4076;48.076;9.118;2024-03-06T14:43:47;2.00;;;1.60;;
8066;SDS011;4076;48.076;9.118;2024-03-06T14:46:14;2.83;;;1.80;;
8066;SDS011;4076;48.076;9.118;2024-03-06T14:48:41;1.80;;;1.70;;
8066;SDS011;4076;48.076;9.118;2024-03-06T14:51:09;2.70;;;2.07;;
8066;SDS011;4076;48.076;9.118;2024-03-06T14:53:36;2.53;;;2.33;;
8066;SDS011;4076;48.076;9.118;2024-03-06T14:56:03;3.37;;;3.03;;
8066;SDS011;4076;48.076;9.118;2024-03-06T14:58:31;1.93;;;1.73;;
8066;SDS011;4076;48.076;9.118;2024-03-06T15:00:58;2.10;;;1.50;;
8066;SDS011;4076;48.076;9.118;2024-03-06T15:03:25;1.73;;;1.57;;
8066;SDS011;4076;48.076;9.118;2024-03-06T15:05:52;1.50;;;1.40;;
8066;SDS011;4076;48.076;9.118;2024-03-06T15:08:19;1.70;;;1.60;;
8066;SDS011;4076;48.076;9.118;2024-03-06T15:10:48;4.77;;;1.20;;
8066;SDS011;4076;48.076;9.118;2024-03-06T15:13:16;1.67;;;1.23;;
8066;SDS011;4076;48.076;9.118;2024-03-06T15:15:44;1.40;;;1.30;;
8066;SDS011;4076;48.076;9.118;2024-03-06T15:18:11;1.37;;;1.20;;
8066;SDS011;4076;48.076;9.118;2024-03-06T15:20:38;1.23;;;1.13;;
8066;SDS011;4076;48.076;9.118;2024-03-06T15:23:05;3.73;;;1.43;;
8066;SDS011;4076;48.076;9.118;2024-03-06T15:25:32;1.20;;;1.10;;
8066;SDS011;4076;48.076;9.118;2024-03-06T15:27:59;1.90;;;1.50;;
8066;SDS011;4076;48.076;9.118;2024-03-06T15:32:57;1.20;;;1.10;;
8066;SDS011;4076;48.076;9.118;2024-03-06T15:35:24;1.30;;;1.20;;
8066;SDS011;4076;48.076;9.118;2024-03-06T15:37:51;1.47;;;1.30;;
8066;SDS011;4076;48.076;9.118;2024-03-06T15:40:19;2.17;;;1.33;;
8066;SDS011;4076;48.076;9.118;2024-03-06T15:42:48;1.30;;;1.20;;
8066;SDS011;4076;48.076;9.118;2024-03-06T15:45:17;1.83;;;1.73;;